Time;durP1;ratioP1;P1;durP2;ratioP2;P2;SDS_P1;SDS_P2;PMS_P1;PMS_P2;Temp;Humidity;BMP_temperature;BMP_pressure;BME280_temperature;BME280_humidity;BME280_pressure;Samples;Min_cycle;Max_cycle;Signal;HPM_P1;HPM_P2
2021/04/05 00:02:17;;;;;;;13.17;5.67;;;5.90;99.80;;;;;;5014172;28;20495;-89
2021/04/05 00:04:43;;;;;;;9.03;4.97;;;5.70;99.90;;;;;;5013692;28;20562;-87
2021/04/05 00:07:10;;;;;;;7.70;4.03;;;5.60;99.90;;;;;;5013547;28;20456;-84
2021/04/05 00:09:39;;;;;;;8.80;5.03;;;5.60;99.90;;;;;;5013296;28;20816;-85
2021/04/05 00:12:06;;;;;;;8.37;5.30;;;5.70;99.90;;;;;;5013267;28;20464;-86
2021/04/05 00:14:32;;;;;;;6.93;4.20;;;5.80;99.90;;;;;;5013244;28;20963;-85
2021/04/05 00:16:59;;;;;;;9.23;5.03;;;5.90;99.90;;;;;;5012258;28;20499;-86
2021/04/05 00:19:25;;;;;;;8.50;5.20;;;5.90;99.90;;;;;;5013774;28;20451;-88
2021/04/05 00:21:51;;;;;;;12.43;5.00;;;5.80;99.90;;;;;;5013281;28;21010;-85
2021/04/05 00:24:17;;;;;;;6.60;3.40;;;5.90;99.90;;;;;;5013140;28;20459;-85
2021/04/05 00:26:44;;;;;;;5.13;3.60;;;5.90;99.90;;;;;;5013109;28;20456;-87
2021/04/05 00:29:11;;;;;;;5.80;4.60;;;6.00;99.90;;;;;;5013248;28;20455;-86
2021/04/05 00:31:37;;;;;;;8.90;4.37;;;6.00;99.90;;;;;;5012166;28;20790;-84
2021/04/05 00:34:04;;;;;;;7.83;3.40;;;5.90;99.90;;;;;;5013304;28;20911;-87
2021/04/05 00:36:30;;;;;;;4.83;4.20;;;6.10;99.70;;;;;;5013564;28;20459;-89
2021/04/05 00:38:56;;;;;;;8.57;3.90;;;6.00;99.80;;;;;;5013278;28;20471;-85
2021/04/05 00:41:23;;;;;;;7.60;5.03;;;5.90;99.90;;;;;;5013269;28;20488;-85
2021/04/05 00:43:51;;;;;;;7.77;4.30;;;5.80;99.90;;;;;;5013239;28;20514;-87
2021/04/05 00:46:20;;;;;;;6.70;3.90;;;5.70;99.90;;;;;;5007985;28;20800;-88
2021/04/05 00:48:47;;;;;;;7.27;4.00;;;5.60;99.90;;;;;;5013456;28;20478;-89
2021/04/05 00:51:16;;;;;;;6.27;4.70;;;5.60;99.90;;;;;;5012863;28;20470;-89
2021/04/05 00:53:44;;;;;;;9.50;4.90;;;5.50;99.90;;;;;;5013179;28;20448;-85
2021/04/05 00:56:13;;;;;;;8.50;4.90;;;5.40;99.90;;;;;;5012870;28;20962;-87
2021/04/05 00:58:41;;;;;;;6.07;3.73;;;5.20;99.90;;;;;;5013036;28;20447;-84
2021/04/05 01:01:10;;;;;;;3.43;3.00;;;5.40;99.90;;;;;;5011908;28;20507;-86
2021/04/05 01:03:39;;;;;;;4.10;3.70;;;5.40;99.90;;;;;;5013309;28;20440;-84
2021/04/05 01:06:09;;;;;;;13.57;4.20;;;5.40;99.90;;;;;;5014898;28;20456;-88
2021/04/05 01:08:36;;;;;;;6.93;4.70;;;5.30;99.90;;;;;;5016689;28;20448;-88
2021/04/05 01:11:02;;;;;;;7.03;4.27;;;5.10;99.90;;;;;;5016451;28;20506;-89
2021/04/05 01:13:29;;;;;;;7.70;4.17;;;;;;;;;;5016728;28;20451;-89
2021/04/05 01:15:56;;;;;;;6.33;4.13;;;;;;;;;;5015668;28;20448;-84
2021/04/05 01:18:23;;;;;;;12.10;4.50;;;6.10;99.90;;;;;;5016400;28;20557;-89
2021/04/05 01:20:50;;;;;;;4.63;3.87;;;5.40;99.90;;;;;;5016216;28;20500;-87
2021/04/05 01:23:18;;;;;;;10.53;4.03;;;5.20;99.90;;;;;;5016312;28;20466;-85
2021/04/05 01:25:44;;;;;;;7.50;3.13;;;5.10;99.90;;;;;;5016190;28;20954;-89
2021/04/05 01:28:10;;;;;;;7.73;3.87;;;5.10;99.90;;;;;;5016215;28;20463;-83
2021/04/05 01:30:39;;;;;;;6.30;4.40;;;5.20;99.90;;;;;;5013301;28;20453;-84
2021/04/05 01:33:09;;;;;;;6.57;4.13;;;5.20;99.90;;;;;;5016273;28;20479;-85
2021/04/05 01:35:39;;;;;;;9.47;4.70;;;5.20;99.90;;;;;;5016100;28;20459;-84
2021/04/05 01:38:07;;;;;;;7.23;4.23;;;5.20;99.90;;;;;;5016024;28;20502;-89
2021/04/05 01:40:35;;;;;;;5.90;4.00;;;5.30;99.90;;;;;;5016116;28;20499;-87
2021/04/05 01:43:02;;;;;;;5.77;4.07;;;5.80;99.90;;;;;;5016090;28;20448;-86
2021/04/05 01:45:29;;;;;;;5.40;3.50;;;5.00;99.90;;;;;;5012045;28;20990;-84
2021/04/05 01:47:56;;;;;;;7.37;4.07;;;;;;;;;;5015987;28;20463;-87
2021/04/05 01:50:24;;;;;;;7.33;4.17;;;5.00;99.90;;;;;;5015734;28;20559;-82
2021/04/05 01:52:51;;;;;;;10.77;4.60;;;;;;;;;;5012884;28;20445;-85
2021/04/05 01:55:17;;;;;;;9.57;4.27;;;5.00;99.90;;;;;;5015626;28;20440;-85
2021/04/05 01:57:45;;;;;;;9.70;3.87;;;;;;;;;;5011851;28;20440;-87
2021/04/05 02:00:16;;;;;;;6.00;3.20;;;5.30;99.90;;;;;;5015159;28;20483;-86
2021/04/05 02:02:42;;;;;;;6.07;4.20;;;5.10;99.90;;;;;;5015454;28;21022;-86
2021/04/05 02:05:10;;;;;;;6.43;4.07;;;5.00;99.90;;;;;;5015677;28;21014;-88
2021/04/05 02:07:39;;;;;;;9.87;3.97;;;4.90;99.90;;;;;;5015280;28;20444;-87
2021/04/05 02:10:09;;;;;;;8.13;3.90;;;4.90;99.90;;;;;;5015397;28;20595;-83
2021/04/05 02:12:36;;;;;;;5.67;3.93;;;;;;;;;;5015493;28;20451;-86
2021/04/05 02:15:05;;;;;;;6.30;3.40;;;4.80;99.90;;;;;;5014495;28;20475;-86
2021/04/05 02:17:32;;;;;;;6.70;4.23;;;;;;;;;;5014875;28;20488;-86
2021/04/05 02:19:58;;;;;;;8.77;4.80;;;;;;;;;;5016399;28;20452;-88
2021/04/05 02:22:25;;;;;;;12.07;4.30;;;;;;;;;;5015523;28;20463;-83
2021/04/05 02:24:52;;;;;;;6.13;3.83;;;;;;;;;;5015480;28;20455;-89
2021/04/05 02:27:18;;;;;;;5.00;3.90;;;;;;;;;;5015392;28;20452;-89
2021/04/05 02:29:45;;;;;;;11.23;4.40;;;;;;;;;;5015303;28;20448;-86
2021/04/05 02:32:12;;;;;;;11.90;4.57;;;4.50;99.90;;;;;;5014359;28;20460;-90
2021/04/05 02:34:39;;;;;;;4.97;4.07;;;;;;;;;;5016483;28;20448;-90
2021/04/05 02:37:06;;;;;;;10.80;4.47;;;;;;;;;;5016893;28;20456;-85
2021/04/05 02:39:32;;;;;;;10.63;4.27;;;;;;;;;;5016587;28;20448;-90
2021/04/05 02:41:59;;;;;;;9.60;4.30;;;;;;;;;;5016725;28;20877;-84
2021/04/05 02:44:26;;;;;;;10.13;5.27;;;;;;;;;;5015572;28;20448;-86
2021/04/05 02:46:53;;;;;;;9.97;4.73;;;;;;;;;;5016092;28;20448;-85
2021/04/05 02:49:21;;;;;;;9.27;5.30;;;4.10;99.90;;;;;;4987964;28;20448;-83
2021/04/05 02:51:49;;;;;;;6.10;4.13;;;4.00;99.90;;;;;;5021308;28;20818;-85
2021/04/05 02:54:18;;;;;;;5.93;4.50;;;4.00;99.90;;;;;;5021910;28;20444;-86
2021/04/05 02:56:45;;;;;;;6.47;4.40;;;;;;;;;;5020152;28;20493;-84
2021/04/05 02:59:12;;;;;;;10.00;4.50;;;;;;;;;;5022167;28;20452;-84
2021/04/05 03:01:41;;;;;;;7.07;4.30;;;4.00;99.90;;;;;;5021341;28;20496;-83
2021/04/05 03:04:08;;;;;;;10.60;5.40;;;;;;;;;;5016667;28;20444;-87
2021/04/05 03:06:36;;;;;;;5.83;4.33;;;4.30;99.90;;;;;;5011675;28;20499;-85
2021/04/05 03:09:05;;;;;;;4.43;4.03;;;4.30;99.90;;;;;;5011284;28;20463;-85
2021/04/05 03:11:33;;;;;;;6.80;4.70;;;4.40;99.90;;;;;;5014246;28;20543;-88
2021/04/05 03:13:59;;;;;;;12.93;5.40;;;;;;;;;;5014300;28;20578;-87
2021/04/05 03:16:27;;;;;;;11.83;4.40;;;4.40;99.90;;;;;;5006635;28;20511;-84
2021/04/05 03:18:57;;;;;;;7.80;4.77;;;4.50;99.90;;;;;;5011147;28;20453;-84
2021/04/05 03:21:25;;;;;;;9.23;4.80;;;4.70;99.90;;;;;;5014018;28;20499;-84
2021/04/05 03:23:53;;;;;;;9.40;5.43;;;4.90;99.90;;;;;;5009869;28;20448;-87
2021/04/05 03:26:19;;;;;;;6.23;4.00;;;;;;;;;;5013961;28;20448;-87
2021/04/05 03:28:46;;;;;;;8.33;3.30;;;;;;;;;;5013575;28;20955;-83
2021/04/05 03:31:16;;;;;;;8.10;4.13;;;5.20;99.90;;;;;;5013874;28;20448;-87
2021/04/05 03:33:46;;;;;;;9.03;4.40;;;5.20;99.90;;;;;;5015007;28;20448;-88
2021/04/05 03:36:21;;;;;;;4.47;3.13;;;5.10;99.90;;;;;;5015138;28;20462;-85
2021/04/05 03:38:48;;;;;;;11.90;4.83;;;;;;;;;;5008505;28;20443;-84
2021/04/05 03:41:26;;;;;;;5.70;3.83;;;5.10;99.90;;;;;;5014079;28;20491;-86
2021/04/05 03:43:58;;;;;;;6.33;2.60;;;5.10;99.90;;;;;;5013646;28;20453;-88
2021/04/05 03:46:30;;;;;;;5.80;3.30;;;5.10;99.90;;;;;;5012889;28;20515;-90
2021/04/05 03:49:01;;;;;;;10.60;4.73;;;5.10;99.90;;;;;;5013709;28;20452;-84
2021/04/05 03:51:34;;;;;;;6.47;3.90;;;5.10;99.90;;;;;;5013555;28;20449;-83
2021/04/05 03:54:06;;;;;;;3.73;2.47;;;5.30;99.90;;;;;;5010222;28;20448;-87
2021/04/05 03:56:38;;;;;;;6.73;4.83;;;5.30;99.90;;;;;;5010907;28;20452;-85
2021/04/05 03:59:11;;;;;;;6.50;2.97;;;5.40;99.90;;;;;;5013281;28;20453;-84
2021/04/05 04:01:47;;;;;;;3.17;1.70;;;5.50;99.90;;;;;;5011993;28;20550;-87
2021/04/05 04:04:20;;;;;;;8.67;4.70;;;5.40;99.90;;;;;;5008165;28;20475;-85
2021/04/05 04:06:56;;;;;;;4.27;3.73;;;5.30;99.90;;;;;;5013279;28;20555;-89
2021/04/05 04:09:25;;;;;;;8.57;4.30;;;5.20;99.90;;;;;;5013299;28;20452;-85
2021/04/05 04:11:55;;;;;;;6.23;3.50;;;5.20;99.90;;;;;;5013093;28;20448;-89
2021/04/05 04:14:23;;;;;;;7.30;3.80;;;5.10;99.90;;;;;;5013288;28;20456;-86
2021/04/05 04:16:50;;;;;;;3.00;2.40;;;;;;;;;;5011860;28;20983;-83
2021/04/05 04:19:17;;;;;;;3.37;2.63;;;5.10;99.90;;;;;;5013547;28;20452;-83
2021/04/05 04:21:46;;;;;;;9.23;3.53;;;5.00;99.90;;;;;;5013127;28;20491;-85
2021/04/05 04:24:13;;;;;;;4.33;2.17;;;;;;;;;;5013242;28;20507;-87
2021/04/05 04:26:41;;;;;;;6.10;2.00;;;4.90;99.90;;;;;;5013046;28;20460;-84
2021/04/05 04:29:13;;;;;;;7.47;3.47;;;4.80;99.90;;;;;;5013105;28;20463;-83
2021/04/05 04:31:40;;;;;;;7.60;4.50;;;;;;;;;;5012224;28;20540;-85
2021/04/05 04:34:07;;;;;;;5.00;3.50;;;;;;;;;;5012972;28;20506;-84
2021/04/05 04:36:34;;;;;;;8.27;2.47;;;;;;;;;;5013179;28;20448;-87
2021/04/05 04:39:01;;;;;;;5.17;3.50;;;4.60;99.90;;;;;;5013078;28;20970;-87
2021/04/05 04:41:29;;;;;;;1.67;1.40;;;4.50;99.90;;;;;;5015884;28;20576;-84
2021/04/05 04:43:57;;;;;;;3.60;2.73;;;4.50;99.90;;;;;;5017476;28;20467;-88
2021/04/05 04:46:25;;;;;;;6.73;2.50;;;4.50;99.90;;;;;;5016198;28;20432;-85
2021/04/05 04:48:55;;;;;;;4.40;2.80;;;4.50;99.90;;;;;;5017022;28;20459;-86
2021/04/05 04:51:28;;;;;;;4.60;3.47;;;4.50;99.90;;;;;;5022710;28;20470;-91
2021/04/05 04:53:57;;;;;;;7.00;2.83;;;4.40;99.90;;;;;;5021368;28;20534;-87
2021/04/05 04:56:29;;;;;;;2.20;1.60;;;;;;;;;;5023093;28;20472;-87
2021/04/05 04:58:59;;;;;;;4.00;3.10;;;4.40;99.90;;;;;;5024870;28;20440;-86
2021/04/05 05:01:29;;;;;;;9.20;3.30;;;;;;;;;;5027366;28;21040;-92
2021/04/05 05:03:59;;;;;;;3.87;2.17;;;4.40;99.90;;;;;;5024543;28;20527;-85
2021/04/05 05:06:27;;;;;;;5.40;2.40;;;4.40;99.90;;;;;;5025124;28;20444;-91
2021/04/05 05:08:55;;;;;;;2.57;2.37;;;;;;;;;;5023453;28;20473;-83
2021/04/05 05:11:29;;;;;;;4.13;2.97;;;4.40;99.90;;;;;;5024571;28;20490;-82
2021/04/05 05:13:56;;;;;;;10.40;3.23;;;;;;;;;;5024933;28;20443;-83
2021/04/05 05:16:24;;;;;;;3.07;2.00;;;4.50;99.90;;;;;;5025369;28;20515;-83
2021/04/05 05:18:53;;;;;;;4.30;3.10;;;4.60;99.90;;;;;;5023556;28;20934;-88
2021/04/05 05:21:25;;;;;;;5.13;3.03;;;4.70;99.90;;;;;;5027392;28;20999;-84
2021/04/05 05:23:54;;;;;;;5.47;2.50;;;4.70;99.90;;;;;;5025459;28;20455;-89
2021/04/05 05:26:23;;;;;;;2.33;1.90;;;4.70;99.90;;;;;;5024214;28;20448;-83
2021/04/05 05:28:54;;;;;;;2.87;1.57;;;4.80;99.90;;;;;;5025110;28;20562;-85
2021/04/05 05:31:21;;;;;;;3.83;1.73;;;;;;;;;;5022929;28;20478;-86
2021/04/05 05:33:48;;;;;;;10.23;3.67;;;;;;;;;;5025785;28;20447;-87
2021/04/05 05:36:18;;;;;;;2.77;1.67;;;5.10;99.90;;;;;;5026912;28;20447;-82
2021/04/05 05:38:49;;;;;;;7.63;2.90;;;5.10;99.90;;;;;;5029070;28;20448;-85
2021/04/05 05:41:24;;;;;;;4.90;3.23;;;5.20;99.90;;;;;;5023851;28;20508;-85
2021/04/05 05:44:04;;;;;;;2.27;1.60;;;5.20;99.90;;;;;;5026607;28;20808;-81
2021/04/05 05:46:37;;;;;;;3.40;3.00;;;5.30;99.90;;;;;;5027692;28;20452;-89
2021/04/05 05:49:14;;;;;;;3.37;2.20;;;5.20;99.90;;;;;;5036037;28;20431;-86
2021/04/05 05:51:59;;;;;;;4.63;3.33;;;5.20;99.90;;;;;;5035417;28;21027;-87
2021/04/05 05:54:36;;;;;;;5.07;3.40;;;5.20;99.90;;;;;;5031210;28;20497;-84
2021/04/05 05:57:09;;;;;;;8.07;3.50;;;5.30;99.90;;;;;;5035402;28;20439;-83
2021/04/05 05:59:42;;;;;;;9.30;3.03;;;5.00;99.90;;;;;;5031356;28;20464;-86
2021/04/05 06:02:21;;;;;;;6.23;3.70;;;5.30;99.90;;;;;;5034397;28;20495;-85
2021/04/05 06:05:02;;;;;;;9.20;3.87;;;5.50;99.90;;;;;;5035176;28;20436;-83
2021/04/05 06:07:36;;;;;;;10.33;4.37;;;5.70;99.90;;;;;;5036249;28;20453;-85
2021/04/05 06:10:16;;;;;;;6.77;2.20;;;6.00;99.90;;;;;;5032901;28;20432;-86
2021/04/05 06:12:56;;;;;;;2.30;1.50;;;6.00;99.90;;;;;;5035489;28;20458;-87
2021/04/05 06:15:27;;;;;;;3.83;2.97;;;6.10;99.90;;;;;;5034176;28;20950;-86
2021/04/05 06:18:05;;;;;;;2.97;2.10;;;6.20;99.90;;;;;;5035977;28;20479;-84
2021/04/05 06:20:38;;;;;;;3.53;2.87;;;6.30;99.90;;;;;;5035265;28;20456;-86
2021/04/05 06:23:29;;;;;;;2.90;2.27;;;6.40;99.60;;;;;;5034853;28;20454;-88
2021/04/05 06:26:03;;;;;;;5.63;3.50;;;6.50;99.30;;;;;;5035104;28;20493;-86
2021/04/05 06:28:39;;;;;;;3.47;2.47;;;6.70;98.60;;;;;;5031776;28;20939;-88
2021/04/05 06:31:18;;;;;;;3.60;2.60;;;6.70;98.40;;;;;;5030642;28;20453;-87
2021/04/05 06:33:50;;;;;;;3.60;2.27;;;6.80;98.10;;;;;;5025550;28;20770;-88
2021/04/05 06:36:21;;;;;;;3.50;2.17;;;6.80;98.10;;;;;;5023060;28;20794;-81
2021/04/05 06:38:55;;;;;;;6.77;3.67;;;6.90;98.20;;;;;;5023662;28;20970;-81
2021/04/05 06:41:54;;;;;;;7.67;3.53;;;6.90;98.00;;;;;;5019348;28;20484;-86
2021/04/05 06:44:29;;;;;;;6.60;3.43;;;;;;;;;;5025222;28;20931;-85
2021/04/05 06:47:25;;;;;;;2.40;2.07;;;6.90;97.90;;;;;;5004088;28;20452;-84
2021/04/05 06:50:07;;;;;;;4.73;2.60;;;7.00;98.20;;;;;;5028011;28;20440;-84
2021/04/05 06:52:58;;;;;;;6.70;2.50;;;7.00;98.10;;;;;;5022064;28;20443;-82
2021/04/05 06:55:39;;;;;;;6.40;3.10;;;7.10;98.30;;;;;;5027893;28;20811;-89
2021/04/05 06:58:31;;;;;;;9.70;3.07;;;7.20;98.00;;;;;;5026199;28;20445;-87
2021/04/05 07:01:33;;;;;;;5.63;2.77;;;7.30;97.70;;;;;;5022242;28;20862;-87
2021/04/05 07:04:38;;;;;;;11.90;3.33;;;7.70;98.10;;;;;;5024397;28;20509;-92
2021/04/05 07:07:18;;;;;;;6.63;2.63;;;7.60;97.10;;;;;;5031754;28;20439;-83
2021/04/05 07:09:47;;;;;;;5.73;3.33;;;;;;;;;;5030600;28;20451;-87
2021/04/05 07:12:42;;;;;;;8.67;4.50;;;7.70;97.40;;;;;;5034368;28;20955;-83
2021/04/05 07:15:29;;;;;;;5.80;3.87;;;7.90;97.00;;;;;;5031213;28;20523;-83
2021/04/05 07:18:14;;;;;;;5.87;3.93;;;8.00;96.90;;;;;;5027661;28;20475;-92
2021/04/05 07:20:54;;;;;;;2.90;2.00;;;7.90;97.50;;;;;;5031427;28;20485;-86
2021/04/05 07:23:31;;;;;;;6.00;2.23;;;7.80;96.80;;;;;;5041900;28;20451;-83
2021/04/05 07:26:10;;;;;;;5.43;3.43;;;8.20;97.20;;;;;;5033576;28;20435;-82
2021/04/05 07:28:48;;;;;;;5.67;3.60;;;8.20;96.30;;;;;;5040085;28;20448;-82
2021/04/05 07:31:27;;;;;;;9.63;3.70;;;8.30;96.20;;;;;;5030948;28;20471;-82
2021/04/05 07:33:58;;;;;;;7.87;3.80;;;8.40;95.90;;;;;;5026940;28;20474;-82
2021/04/05 07:36:31;;;;;;;7.87;2.70;;;8.50;96.00;;;;;;5026457;28;20451;-83
2021/04/05 07:39:04;;;;;;;11.43;4.63;;;;;;;;;;5044826;23;20486;-91
2021/04/05 07:41:38;;;;;;;5.73;2.73;;;8.80;95.80;;;;;;5031703;28;20490;-87
2021/04/05 07:44:37;;;;;;;5.20;3.20;;;9.00;95.30;;;;;;5028192;28;20461;-89
2021/04/05 07:47:12;;;;;;;7.40;2.70;;;9.50;94.60;;;;;;5013492;28;20461;-84
2021/04/05 07:49:44;;;;;;;5.40;3.60;;;9.90;94.10;;;;;;5039341;28;20451;-86
2021/04/05 07:52:21;;;;;;;6.00;4.30;;;10.30;95.40;;;;;;5039810;28;20445;-87
2021/04/05 07:54:49;;;;;;;7.73;5.20;;;10.40;94.90;;;;;;5032251;28;20451;-87
2021/04/05 07:57:25;;;;;;;5.97;2.77;;;10.40;93.30;;;;;;5033935;28;20439;-91
2021/04/05 08:00:05;;;;;;;3.20;1.80;;;10.30;95.10;;;;;;5023127;28;20467;-87
2021/04/05 08:02:40;;;;;;;6.87;3.23;;;10.30;92.70;;;;;;5023640;28;20499;-87
2021/04/05 08:05:19;;;;;;;3.70;2.30;;;10.30;94.20;;;;;;5018741;28;20444;-88
2021/04/05 08:08:01;;;;;;;4.60;3.37;;;10.80;95.00;;;;;;5016253;28;20447;-89
2021/04/05 08:10:36;;;;;;;10.20;5.10;;;11.30;95.10;;;;;;5021371;28;20448;-84
2021/04/05 08:13:12;;;;;;;5.80;3.60;;;11.60;91.90;;;;;;5021565;28;20444;-87
2021/04/05 08:16:05;;;;;;;8.03;3.33;;;11.40;92.30;;;;;;5014632;28;20439;-83
2021/04/05 08:18:38;;;;;;;4.33;2.27;;;11.40;93.40;;;;;;5016854;28;20459;-86
2021/04/05 08:21:10;;;;;;;9.90;4.63;;;11.80;92.70;;;;;;5019138;28;20547;-83
2021/04/05 08:23:51;;;;;;;7.47;2.23;;;12.40;90.50;;;;;;5019167;28;20447;-88
2021/04/05 08:26:25;;;;;;;7.07;4.33;;;12.10;90.30;;;;;;5016884;28;20451;-83
2021/04/05 08:28:59;;;;;;;11.90;3.93;;;12.20;91.90;;;;;;5016487;28;20792;-90
2021/04/05 08:32:10;;;;;;;5.03;2.00;;;12.10;89.80;;;;;;5017567;28;20440;-83
2021/04/05 08:34:53;;;;;;;6.33;3.13;;;11.90;90.20;;;;;;4958526;28;21001;-88
2021/04/05 08:37:25;;;;;;;7.53;3.40;;;11.60;90.30;;;;;;5018482;28;20938;-82
2021/04/05 08:40:01;;;;;;;9.20;3.57;;;11.60;90.40;;;;;;5020017;28;20495;-88
2021/04/05 08:42:31;;;;;;;3.30;1.80;;;11.30;89.60;;;;;;5018960;28;20495;-89
2021/04/05 08:45:08;;;;;;;7.83;3.00;;;11.30;90.10;;;;;;5017714;28;20506;-86
2021/04/05 08:47:38;;;;;;;3.07;1.63;;;10.90;88.30;;;;;;5019529;28;20483;-90
2021/04/05 08:50:11;;;;;;;9.17;2.70;;;10.90;89.60;;;;;;5018300;28;20458;-88
2021/04/05 08:52:40;;;;;;;4.50;1.83;;;10.90;89.10;;;;;;5017674;28;20465;-84
2021/04/05 08:55:10;;;;;;;2.47;1.40;;;11.00;87.70;;;;;;5023131;28;20464;-84
2021/04/05 08:57:40;;;;;;;3.63;1.60;;;10.80;85.20;;;;;;5016785;28;20459;-88
2021/04/05 09:00:11;;;;;;;9.57;3.60;;;9.10;85.00;;;;;;5024144;28;21050;-85
2021/04/05 09:02:39;;;;;;;2.83;1.77;;;10.80;85.40;;;;;;5026345;28;20979;-84
2021/04/05 09:05:11;;;;;;;4.33;2.63;;;11.00;85.80;;;;;;5024387;28;20459;-87
2021/04/05 09:08:01;;;;;;;4.53;2.20;;;10.70;85.60;;;;;;5025508;28;20444;-86
2021/04/05 09:10:31;;;;;;;4.40;2.30;;;10.40;87.30;;;;;;5025635;28;20463;-88
2021/04/05 09:13:00;;;;;;;2.50;1.93;;;10.30;87.40;;;;;;5021954;28;21030;-83
2021/04/05 09:16:11;;;;;;;6.60;2.70;;;10.40;87.60;;;;;;5026402;28;20510;-84
2021/04/05 09:19:20;;;;;;;5.80;1.63;;;10.40;87.10;;;;;;5025457;28;20456;-86
2021/04/05 09:22:13;;;;;;;2.57;1.80;;;10.30;87.10;;;;;;4925337;29;20488;-88
2021/04/05 09:25:08;;;;;;;8.97;2.20;;;10.50;87.90;;;;;;4925555;29;20525;-89
2021/04/05 09:27:57;;;;;;;5.40;2.60;;;10.60;88.30;;;;;;5009237;28;20445;-85
2021/04/05 09:30:54;;;;;;;8.83;2.83;;;10.60;87.00;;;;;;5026780;28;20452;-86
2021/04/05 09:33:39;;;;;;;8.30;2.73;;;10.70;87.50;;;;;;5009002;23;20491;-84
2021/04/05 09:36:20;;;;;;;5.67;1.50;;;10.40;86.40;;;;;;5042461;28;20455;-85
2021/04/05 09:39:09;;;;;;;6.70;2.47;;;10.50;85.60;;;;;;5044294;28;20452;-88
2021/04/05 09:42:03;;;;;;;2.90;2.60;;;10.50;84.50;;;;;;5017071;28;20486;-90
2021/04/05 09:45:03;;;;;;;2.63;2.10;;;9.90;99.90;;;;;;5045217;28;20451;-87
2021/04/05 09:48:02;;;;;;;3.17;1.47;;;10.20;84.50;;;;;;5040094;28;20802;-86
2021/04/05 09:50:38;;;;;;;6.03;2.57;;;10.20;99.90;;;;;;5042980;28;20451;-85
2021/04/05 09:53:37;;;;;;;7.87;2.60;;;10.50;84.30;;;;;;5050934;28;20453;-86
2021/04/05 09:56:07;;;;;;;4.90;2.80;;;10.40;82.30;;;;;;5043686;28;20447;-92
2021/04/05 09:58:38;;;;;;;3.80;1.70;;;10.30;81.20;;;;;;5045556;28;20474;-85
2021/04/05 10:01:09;;;;;;;3.60;2.00;;;10.20;81.80;;;;;;5041404;28;20490;-86
2021/04/05 10:03:42;;;;;;;6.70;2.63;;;10.30;82.60;;;;;;5038666;28;20951;-87
2021/04/05 10:06:11;;;;;;;8.73;2.20;;;10.40;82.10;;;;;;5044055;28;20450;-88
2021/04/05 10:08:38;;;;;;;1.73;1.60;;;;;;;;;;5043428;28;20439;-88
2021/04/05 10:11:06;;;;;;;8.07;2.80;;;10.40;82.50;;;;;;5043889;28;20534;-87
2021/04/05 10:13:35;;;;;;;4.77;2.53;;;10.50;83.30;;;;;;5032606;28;20449;-85
2021/04/05 10:16:04;;;;;;;3.27;2.00;;;10.50;82.90;;;;;;5016516;28;20440;-90
2021/04/05 10:18:31;;;;;;;7.20;2.60;;;;;;;;;;5019295;28;20452;-88
2021/04/05 10:20:58;;;;;;;3.70;1.40;;;10.20;83.80;;;;;;5017663;28;20526;-83
2021/04/05 10:23:26;;;;;;;5.40;2.10;;;10.30;82.10;;;;;;5020500;28;20452;-86
2021/04/05 10:25:54;;;;;;;2.27;1.50;;;10.20;82.80;;;;;;5021457;28;20436;-87
2021/04/05 10:28:22;;;;;;;6.57;2.73;;;10.50;84.80;;;;;;5020721;28;20444;-87
2021/04/05 10:30:55;;;;;;;4.17;2.10;;;10.40;83.40;;;;;;5033623;28;20447;-84
2021/04/05 10:33:28;;;;;;;12.40;2.90;;;10.60;81.90;;;;;;5036083;28;20843;-89
2021/04/05 10:35:57;;;;;;;6.30;1.90;;;10.60;80.80;;;;;;5039771;28;20447;-89
2021/04/05 10:38:24;;;;;;;2.20;1.17;;;10.80;81.90;;;;;;5038460;28;20538;-88
2021/04/05 10:40:52;;;;;;;3.10;2.00;;;10.60;75.20;;;;;;5040553;28;20451;-84
2021/04/05 10:43:24;;;;;;;5.33;2.07;;;10.60;74.30;;;;;;5037513;28;20444;-84
2021/04/05 10:45:57;;;;;;;2.30;1.70;;;10.60;73.00;;;;;;5040741;28;20817;-90
2021/04/05 10:48:39;;;;;;;5.57;1.67;;;10.80;72.80;;;;;;5044120;28;20444;-84
2021/04/05 10:51:10;;;;;;;4.30;2.57;;;11.00;89.90;;;;;;5045456;28;20477;-87
2021/04/05 10:53:41;;;;;;;5.00;2.50;;;10.70;72.60;;;;;;5043727;28;20493;-84
2021/04/05 10:56:09;;;;;;;5.07;2.00;;;11.10;72.60;;;;;;5052564;23;20486;-84
2021/04/05 10:58:44;;;;;;;2.43;2.03;;;11.00;68.60;;;;;;5029817;28;20811;-85
2021/04/05 11:01:12;;;;;;;2.20;1.27;;;11.00;68.30;;;;;;5019295;28;20486;-86
2021/04/05 11:03:43;;;;;;;2.67;2.13;;;11.00;93.90;;;;;;5018968;28;20445;-84
2021/04/05 11:06:13;;;;;;;4.23;1.43;;;11.10;66.60;;;;;;5016884;28;20451;-89
2021/04/05 11:08:41;;;;;;;1.63;1.33;;;11.20;85.10;;;;;;5018426;28;20455;-86
2021/04/05 11:11:11;;;;;;;1.77;1.47;;;11.10;93.10;;;;;;5020449;28;20445;-86
2021/04/05 11:13:42;;;;;;;2.30;2.00;;;11.40;67.30;;;;;;5048912;23;20491;-87
2021/04/05 11:16:11;;;;;;;3.80;2.10;;;11.80;93.00;;;;;;5042958;28;20455;-88
2021/04/05 11:18:46;;;;;;;6.20;2.33;;;11.60;67.90;;;;;;5033289;28;20992;-90
2021/04/05 11:21:14;;;;;;;8.03;2.70;;;12.30;87.10;;;;;;5029959;28;20486;-89
2021/04/05 11:23:41;;;;;;;4.47;2.73;;;12.40;89.20;;;;;;5038431;28;20529;-85
2021/04/05 11:26:09;;;;;;;3.83;2.10;;;;;;;;;;5028997;28;20527;-86
2021/04/05 11:28:40;;;;;;;4.53;2.60;;;12.20;93.50;;;;;;5027553;28;20526;-88
2021/04/05 11:31:10;;;;;;;2.10;1.30;;;11.60;71.70;;;;;;5021469;28;20480;-82
2021/04/05 11:33:44;;;;;;;3.50;2.00;;;11.30;72.70;;;;;;5019794;28;20493;-81
2021/04/05 11:36:12;;;;;;;4.83;2.03;;;11.40;94.20;;;;;;5026824;28;20449;-83
2021/04/05 11:38:44;;;;;;;5.80;3.37;;;11.40;83.80;;;;;;5026729;28;20447;-81
2021/04/05 11:41:13;;;;;;;8.17;2.70;;;11.40;74.90;;;;;;5019829;28;20485;-84
2021/04/05 11:43:43;;;;;;;5.07;2.30;;;11.60;75.90;;;;;;5023883;28;20444;-83
2021/04/05 11:46:12;;;;;;;6.13;3.70;;;11.90;85.30;;;;;;5032009;28;20447;-86
2021/04/05 11:48:39;;;;;;;3.33;3.03;;;12.10;96.10;;;;;;5028973;28;20531;-82
2021/04/05 11:51:09;;;;;;;12.03;4.60;;;12.00;90.00;;;;;;5023865;28;20458;-85
2021/04/05 11:53:47;;;;;;;8.13;3.17;;;11.60;78.60;;;;;;5027499;28;20493;-90
2021/04/05 11:56:28;;;;;;;6.20;3.43;;;12.00;84.20;;;;;;5025865;28;20455;-84
2021/04/05 11:59:06;;;;;;;6.27;4.63;;;11.60;98.10;;;;;;5027963;28;20462;-83
2021/04/05 12:01:37;;;;;;;7.20;3.03;;;10.90;80.50;;;;;;5018548;28;20891;-82
2021/04/05 12:04:13;;;;;;;6.03;3.80;;;11.30;88.20;;;;;;5028973;28;20435;-86
2021/04/05 12:06:44;;;;;;;4.80;3.43;;;11.40;98.00;;;;;;5024000;28;20451;-82
2021/04/05 12:09:22;;;;;;;5.70;3.10;;;11.40;81.10;;;;;;5025466;28;20452;-84
2021/04/05 12:11:55;;;;;;;5.53;4.37;;;11.60;97.10;;;;;;5022820;28;20439;-83
2021/04/05 12:14:26;;;;;;;9.73;4.13;;;11.50;98.00;;;;;;4998099;28;20461;-86
2021/04/05 12:16:56;;;;;;;5.43;4.10;;;11.40;98.50;;;;;;4996599;28;20881;-85
2021/04/05 12:19:26;;;;;;;6.13;4.17;;;11.60;94.20;;;;;;4996781;28;20445;-86
2021/04/05 12:21:54;;;;;;;6.67;4.67;;;11.10;83.20;;;;;;5000779;28;20493;-84
2021/04/05 12:24:30;;;;;;;8.50;5.03;;;11.00;84.10;;;;;;4996541;28;20815;-82
2021/04/05 12:26:59;;;;;;;14.53;6.17;;;10.90;98.70;;;;;;4993907;28;20756;-83
2021/04/05 12:29:30;;;;;;;12.30;6.33;;;10.90;96.70;;;;;;4994542;28;20449;-82
2021/04/05 12:32:00;;;;;;;11.60;5.27;;;11.20;99.90;;;;;;4964339;28;20940;-81
2021/04/05 12:34:29;;;;;;;3.87;2.13;;;10.90;85.60;;;;;;4998422;28;20445;-82
2021/04/05 12:36:56;;;;;;;7.33;3.97;;;;;;;;;;4991849;28;20488;-82
2021/04/05 12:39:29;;;;;;;12.37;6.10;;;10.50;96.50;;;;;;5001443;28;20441;-82
2021/04/05 12:41:57;;;;;;;10.97;6.00;;;10.60;88.80;;;;;;5000777;28;20501;-84
2021/04/05 12:44:29;;;;;;;14.10;6.53;;;10.70;89.70;;;;;;4998875;28;20963;-86
2021/04/05 12:46:56;;;;;;;11.27;5.37;;;10.60;90.00;;;;;;4994636;28;20469;-84
2021/04/05 12:49:26;;;;;;;6.27;3.93;;;10.50;95.90;;;;;;4998667;28;20465;-89
2021/04/05 12:51:58;;;;;;;12.43;4.70;;;10.30;99.90;;;;;;4997708;28;20452;-89
2021/04/05 12:54:30;;;;;;;13.00;6.20;;;10.30;91.40;;;;;;4999002;28;20445;-91
2021/04/05 12:57:02;;;;;;;6.20;3.40;;;10.50;99.90;;;;;;4998066;28;20492;-84
2021/04/05 12:59:29;;;;;;;13.80;7.97;;;10.10;99.90;;;;;;5001735;28;20464;-85
2021/04/05 13:02:05;;;;;;;10.27;5.13;;;9.90;99.90;;;;;;5001914;28;20550;-88
2021/04/05 13:04:35;;;;;;;7.27;3.97;;;9.90;93.90;;;;;;5003348;28;20452;-87
2021/04/05 13:07:10;;;;;;;13.40;7.07;;;9.60;94.90;;;;;;5000913;28;20489;-83
2021/04/05 13:09:36;;;;;;;8.90;5.83;;;;;;;;;;5001903;28;20449;-88
2021/04/05 13:12:11;;;;;;;13.20;5.63;;;9.90;94.50;;;;;;5004085;28;20450;-86
2021/04/05 13:14:47;;;;;;;14.03;7.23;;;9.40;99.90;;;;;;5035848;28;20453;-87
2021/04/05 13:17:22;;;;;;;12.00;7.00;;;9.80;95.20;;;;;;5033162;28;20439;-84
2021/04/05 13:19:53;;;;;;;9.73;5.43;;;10.10;96.60;;;;;;5032988;28;20443;-86
2021/04/05 13:22:25;;;;;;;20.07;7.57;;;10.30;99.90;;;;;;5027736;28;20488;-84
2021/04/05 13:25:04;;;;;;;12.50;7.73;;;10.10;96.00;;;;;;5025061;28;20452;-82
2021/04/05 13:27:31;;;;;;;11.83;8.70;;;9.60;99.90;;;;;;5035119;28;20440;-88
2021/04/05 13:30:00;;;;;;;17.60;7.63;;;9.90;99.90;;;;;;5042207;28;20447;-85
2021/04/05 13:32:29;;;;;;;18.53;8.87;;;9.90;95.80;;;;;;5040361;28;20523;-87
2021/04/05 13:35:03;;;;;;;19.67;5.93;;;9.90;95.30;;;;;;5030363;28;20453;-89